createdAt,value
2023-01-03T00:02:16.237Z,29.60
2023-01-03T00:04:49.145Z,31.53
2023-01-03T00:07:33.859Z,36.27
2023-01-03T00:10:07.338Z,27.10
2023-01-03T00:12:35.503Z,25.30
2023-01-03T00:15:03.271Z,19.43
2023-01-03T00:17:30.961Z,21.27
2023-01-03T00:19:58.388Z,22.93
2023-01-03T00:22:25.988Z,21.40
2023-01-03T00:24:53.680Z,27.53
2023-01-03T00:27:21.063Z,34.00
2023-01-03T00:29:48.666Z,28.93
2023-01-03T00:32:16.125Z,28.13
2023-01-03T00:34:44.890Z,29.00
2023-01-03T00:37:13.269Z,26.17
2023-01-03T00:39:40.632Z,32.97
2023-01-03T00:42:08.229Z,31.37
2023-01-03T00:44:35.934Z,35.40
2023-01-03T00:47:03.589Z,35.87
2023-01-03T00:49:31.014Z,38.93
2023-01-03T00:51:58.657Z,40.77
2023-01-03T00:54:26.190Z,42.23
2023-01-03T00:56:53.548Z,41.03
2023-01-03T00:59:21.445Z,49.43
2023-01-03T01:01:50.891Z,46.53
2023-01-03T01:04:29.249Z,49.23
2023-01-03T01:06:59.206Z,52.30
2023-01-03T01:09:28.728Z,48.60
2023-01-03T01:11:56.175Z,42.77
2023-01-03T01:14:25.231Z,54.70
2023-01-03T01:16:56.918Z,50.13
2023-01-03T01:19:29.785Z,50.13
2023-01-03T01:21:57.649Z,51.63
2023-01-03T01:24:25.358Z,51.43
2023-01-03T01:26:52.831Z,46.20
2023-01-03T01:29:20.311Z,61.23
2023-01-03T01:31:48.160Z,44.90
2023-01-03T01:34:15.837Z,43.27
2023-01-03T01:36:43.737Z,55.17
2023-01-03T01:39:20.340Z,52.77
2023-01-03T01:42:07.592Z,39.13
2023-01-03T01:44:54.873Z,49.67
2023-01-03T01:47:27.258Z,55.37
2023-01-03T01:50:03.971Z,53.10
2023-01-03T01:52:32.557Z,45.83
2023-01-03T01:55:02.097Z,50.50
2023-01-03T01:57:29.507Z,60.17
2023-01-03T01:59:56.870Z,40.20
2023-01-03T02:02:24.780Z,44.83
2023-01-03T02:04:54.071Z,36.00
2023-01-03T02:07:22.031Z,38.60
2023-01-03T02:09:49.416Z,37.17
2023-01-03T02:12:52.316Z,37.33
2023-01-03T02:15:39.088Z,46.10
2023-01-03T02:20:59.112Z,38.80
2023-01-03T02:24:02.126Z,37.60
2023-01-03T02:26:48.462Z,43.90
2023-01-03T02:29:33.489Z,37.33
2023-01-03T02:32:42.783Z,37.00
2023-01-03T02:35:31.297Z,40.70
2023-01-03T02:38:06.032Z,37.57
2023-01-03T02:40:45.397Z,34.00
2023-01-03T02:43:17.260Z,40.97
2023-01-03T02:45:52.620Z,41.87
2023-01-03T02:48:35.476Z,44.13
2023-01-03T02:51:29.803Z,38.37
2023-01-03T02:53:57.433Z,37.43
2023-01-03T02:56:29.072Z,39.97
2023-01-03T02:59:02.296Z,37.67
2023-01-03T03:01:29.990Z,42.83
2023-01-03T03:03:57.741Z,41.60
2023-01-03T03:06:35.046Z,37.70
2023-01-03T03:09:02.690Z,40.67
2023-01-03T03:11:49.171Z,40.93
2023-01-03T03:14:33.623Z,38.07
2023-01-03T03:17:04.424Z,40.73
2023-01-03T03:19:55.267Z,38.53
2023-01-03T03:23:08.405Z,42.13
2023-01-03T03:25:43.496Z,37.40
2023-01-03T03:28:31.449Z,46.07
2023-01-03T03:31:11.140Z,37.00
2023-01-03T03:33:44.441Z,37.93
2023-01-03T03:36:26.500Z,35.10
2023-01-03T03:38:53.984Z,34.20
2023-01-03T03:41:47.389Z,35.57
2023-01-03T03:44:53.408Z,33.60
2023-01-03T03:47:28.506Z,34.30
2023-01-03T03:49:57.661Z,33.93
2023-01-03T03:52:27.191Z,29.73
2023-01-03T03:54:57.837Z,32.00
2023-01-03T03:57:33.753Z,32.33
2023-01-03T04:00:13.440Z,32.73
2023-01-03T04:02:40.861Z,29.53
2023-01-03T04:05:09.833Z,32.17
2023-01-03T04:07:37.340Z,29.10
2023-01-03T04:10:04.943Z,29.57
2023-01-03T04:12:32.587Z,29.93
2023-01-03T04:14:59.984Z,28.13
2023-01-03T04:17:27.479Z,26.73
2023-01-03T04:19:55.153Z,28.10
2023-01-03T04:22:22.537Z,28.70
2023-01-03T04:24:49.906Z,27.63
2023-01-03T04:27:17.536Z,27.40
2023-01-03T04:29:44.931Z,27.33
2023-01-03T04:32:12.449Z,26.27
2023-01-03T04:34:40.135Z,28.47
2023-01-03T04:37:07.540Z,27.20
2023-01-03T04:39:34.920Z,26.20
2023-01-03T04:42:22.542Z,27.40
2023-01-03T04:44:49.961Z,25.37
2023-01-03T04:47:17.562Z,25.47
2023-01-03T04:49:46.564Z,24.17
2023-01-03T04:52:14.833Z,23.27
2023-01-03T04:54:42.557Z,26.40
2023-01-03T04:57:10.116Z,23.10
2023-01-03T04:59:37.653Z,26.43
2023-01-03T05:02:05.405Z,25.20
2023-01-03T05:04:32.960Z,25.73
2023-01-03T05:07:00.389Z,23.40
2023-01-03T05:09:28.060Z,25.63
2023-01-03T05:11:55.475Z,25.40
2023-01-03T05:14:22.839Z,24.73
2023-01-03T05:16:50.543Z,25.27
2023-01-03T05:19:18.170Z,24.40
2023-01-03T05:22:04.257Z,25.80
2023-01-03T05:24:50.800Z,26.55
2023-01-03T05:27:18.126Z,25.40
2023-01-03T05:29:47.442Z,24.63
2023-01-03T05:32:14.975Z,25.13
2023-01-03T05:34:42.406Z,24.13
2023-01-03T05:37:10.075Z,25.10
2023-01-03T05:39:37.544Z,24.20
2023-01-03T05:42:05.001Z,27.00
2023-01-03T05:44:33.502Z,24.70
2023-01-03T05:47:01.953Z,24.80
2023-01-03T05:49:29.263Z,24.70
2023-01-03T05:51:56.957Z,26.40
2023-01-03T05:54:24.431Z,24.03
2023-01-03T05:56:51.837Z,28.00
2023-01-03T05:59:19.758Z,24.20
2023-01-03T06:01:47.151Z,26.07
2023-01-03T06:04:14.864Z,24.70
2023-01-03T06:06:42.282Z,25.63
2023-01-03T06:09:09.681Z,23.93
2023-01-03T06:11:37.291Z,23.70
2023-01-03T06:14:04.693Z,22.92
2023-01-03T06:16:50.798Z,23.83
2023-01-03T06:19:18.603Z,25.50
2023-01-03T06:21:47.063Z,25.63
2023-01-03T06:24:14.415Z,26.17
2023-01-03T06:26:42.001Z,24.77
2023-01-03T06:29:09.334Z,23.50
2023-01-03T06:31:36.710Z,25.53
2023-01-03T06:34:04.351Z,25.83
2023-01-03T06:36:34.527Z,24.27
2023-01-03T06:39:02.098Z,22.13
2023-01-03T06:41:29.698Z,26.83
2023-01-03T06:43:57.251Z,25.77
2023-01-03T06:46:45.348Z,23.77
2023-01-03T06:49:37.817Z,28.37
2023-01-03T06:52:23.671Z,27.30
2023-01-03T06:54:51.286Z,26.52
2023-01-03T06:57:26.088Z,26.10
2023-01-03T06:59:55.516Z,26.70
2023-01-03T07:02:23.122Z,30.33
2023-01-03T07:04:50.712Z,26.43
2023-01-03T07:07:18.384Z,30.53
2023-01-03T07:09:45.722Z,28.63
2023-01-03T07:12:31.982Z,28.17
2023-01-03T07:14:59.561Z,25.90
2023-01-03T07:17:26.960Z,25.43
2023-01-03T07:19:54.460Z,26.70
2023-01-03T07:22:23.121Z,23.20
2023-01-03T07:24:50.443Z,24.53
2023-01-03T07:27:17.882Z,22.70
2023-01-03T07:29:46.082Z,20.80
2023-01-03T07:32:13.583Z,21.33
2023-01-03T07:34:40.944Z,21.37
2023-01-03T07:37:08.565Z,18.50
2023-01-03T07:39:35.904Z,19.83
2023-01-03T07:42:22.018Z,17.80
2023-01-03T07:47:16.780Z,16.37
2023-01-03T07:49:44.190Z,15.95
2023-01-03T07:52:11.809Z,15.30
2023-01-03T07:54:39.162Z,17.12
2023-01-03T07:57:06.520Z,18.57
2023-01-03T07:59:34.212Z,17.27
2023-01-03T08:02:01.669Z,23.43
2023-01-03T08:04:29.553Z,21.17
2023-01-03T08:06:58.060Z,20.80
2023-01-03T08:09:44.171Z,18.48
2023-01-03T08:12:30.814Z,18.02
2023-01-03T08:14:58.343Z,19.57
2023-01-03T08:17:25.977Z,17.33
2023-01-03T08:19:53.325Z,17.55
2023-01-03T08:22:20.790Z,17.08
2023-01-03T08:24:48.361Z,20.70
2023-01-03T08:27:15.750Z,18.47
2023-01-03T08:29:43.138Z,20.95
2023-01-03T08:32:10.742Z,20.87
2023-01-03T08:34:38.106Z,22.30
2023-01-03T08:37:07.765Z,22.00
2023-01-03T08:39:39.082Z,22.53
2023-01-03T08:42:07.440Z,20.53
2023-01-03T08:44:35.556Z,20.55
2023-01-03T08:47:03.228Z,20.70
2023-01-03T08:49:30.802Z,20.27
2023-01-03T08:51:58.416Z,19.95
2023-01-03T08:54:25.756Z,19.27
2023-01-03T08:56:53.133Z,20.00
2023-01-03T08:59:20.834Z,20.58
2023-01-03T09:01:48.531Z,20.02
2023-01-03T09:04:16.105Z,19.37
2023-01-03T09:06:43.821Z,20.20
2023-01-03T09:09:11.139Z,19.37
2023-01-03T09:11:38.536Z,19.70
2023-01-03T09:14:06.127Z,21.37
2023-01-03T09:16:33.504Z,19.60
2023-01-03T09:19:02.640Z,19.30
2023-01-03T09:21:30.833Z,20.10
2023-01-03T09:24:00.991Z,21.15
2023-01-03T09:26:29.759Z,19.60
2023-01-03T09:28:57.354Z,25.00
2023-01-03T09:31:24.692Z,23.15
2023-01-03T09:33:52.232Z,20.08
2023-01-03T09:36:19.879Z,18.90
2023-01-03T09:38:47.274Z,18.30
2023-01-03T09:41:21.508Z,18.67
2023-01-03T09:43:49.587Z,19.20
2023-01-03T09:46:24.626Z,17.70
2023-01-03T09:48:53.101Z,17.42
2023-01-03T09:51:50.306Z,19.98
2023-01-03T09:54:52.351Z,19.05
2023-01-03T09:57:52.083Z,17.83
2023-01-03T10:01:04.939Z,19.95
2023-01-03T10:03:52.367Z,18.45
2023-01-03T10:06:35.773Z,17.52
2023-01-03T10:09:23.212Z,18.35
2023-01-03T10:12:12.255Z,17.67
2023-01-03T10:14:44.826Z,19.17
2023-01-03T10:17:34.817Z,18.30
2023-01-03T10:20:33.830Z,18.70
2023-01-03T10:23:01.211Z,18.10
2023-01-03T10:25:28.929Z,20.12
2023-01-03T10:28:07.055Z,19.83
2023-01-03T10:31:00.966Z,19.10
2023-01-03T10:33:42.220Z,21.02
2023-01-03T10:36:09.886Z,19.45
2023-01-03T10:38:44.874Z,19.62
2023-01-03T10:41:23.057Z,19.60
2023-01-03T10:44:00.659Z,18.45
2023-01-03T10:46:29.865Z,21.43
2023-01-03T10:49:29.143Z,18.98
2023-01-03T10:52:03.389Z,19.80
2023-01-03T10:54:51.755Z,20.40
2023-01-03T10:57:46.081Z,20.65
2023-01-03T11:00:33.697Z,18.48
2023-01-03T11:03:24.358Z,19.55
2023-01-03T11:05:57.826Z,19.40
2023-01-03T11:08:42.310Z,20.05
2023-01-03T11:11:27.165Z,20.00
2023-01-03T11:14:17.047Z,17.15
2023-01-03T11:16:44.428Z,18.20
2023-01-03T11:19:16.397Z,18.55
2023-01-03T11:22:04.821Z,17.95
2023-01-03T11:24:47.657Z,19.05
2023-01-03T11:27:55.781Z,18.50
2023-01-03T11:30:44.750Z,17.80
2023-01-03T11:33:25.570Z,17.42
2023-01-03T11:36:08.596Z,17.23
2023-01-03T11:38:48.449Z,16.00
2023-01-03T11:41:19.269Z,18.35
2023-01-03T11:44:24.218Z,17.70
2023-01-03T11:47:10.125Z,17.00
2023-01-03T11:50:05.159Z,17.00
2023-01-03T11:52:54.485Z,16.90
2023-01-03T11:55:36.833Z,16.77
2023-01-03T11:58:35.834Z,17.80
2023-01-03T12:01:27.839Z,17.17
2023-01-03T12:03:55.365Z,16.42
2023-01-03T12:06:29.011Z,15.82
2023-01-03T12:08:59.628Z,17.92
2023-01-03T12:11:29.527Z,16.73
2023-01-03T12:14:19.945Z,16.67
2023-01-03T12:16:50.067Z,17.48
2023-01-03T12:19:39.737Z,17.60
2023-01-03T12:22:36.571Z,17.90
2023-01-03T12:25:19.396Z,17.00
2023-01-03T12:28:08.110Z,17.20
2023-01-03T12:30:53.124Z,20.02
2023-01-03T12:33:48.508Z,17.55
2023-01-03T12:36:40.455Z,17.40
2023-01-03T12:39:32.756Z,19.62
2023-01-03T12:42:08.422Z,19.05
2023-01-03T12:44:40.856Z,18.15
2023-01-03T12:47:27.336Z,18.15
2023-01-03T12:50:18.206Z,18.67
2023-01-03T12:52:56.580Z,18.45
2023-01-03T12:55:29.845Z,18.52
2023-01-03T12:58:13.558Z,18.30
2023-01-03T13:01:00.516Z,19.60
2023-01-03T13:03:37.823Z,23.52
2023-01-03T13:06:10.956Z,18.25
2023-01-03T13:08:51.502Z,19.67
2023-01-03T13:11:29.421Z,20.80
2023-01-03T13:14:24.130Z,35.42
2023-01-03T13:16:56.560Z,29.17
2023-01-03T13:19:24.129Z,19.60
2023-01-03T13:21:54.269Z,18.02
2023-01-03T13:24:42.983Z,19.48
2023-01-03T13:27:22.809Z,15.57
2023-01-03T13:29:50.290Z,15.82
2023-01-03T13:32:23.527Z,15.20
2023-01-03T13:34:56.860Z,16.35
2023-01-03T13:37:36.493Z,15.00
2023-01-03T13:40:17.315Z,16.12
2023-01-03T13:42:44.937Z,16.70
2023-01-03T13:45:15.279Z,13.95
2023-01-03T13:47:52.892Z,16.20
2023-01-03T13:50:28.505Z,15.87
2023-01-03T13:53:06.675Z,14.75
2023-01-03T13:55:56.648Z,15.57
2023-01-03T13:58:32.834Z,15.00
2023-01-03T14:01:06.193Z,16.85
2023-01-03T14:03:56.860Z,16.98
2023-01-03T14:06:43.062Z,17.30
2023-01-03T14:12:17.728Z,18.63
2023-01-03T14:14:45.417Z,17.27
2023-01-03T14:17:15.735Z,18.90
2023-01-03T14:19:44.604Z,16.27
2023-01-03T14:22:28.907Z,17.90
2023-01-03T14:24:59.138Z,17.35
2023-01-03T14:27:36.892Z,18.33
2023-01-03T14:30:05.077Z,18.62
2023-01-03T14:32:35.269Z,19.55
2023-01-03T14:35:03.409Z,22.77
2023-01-03T14:37:33.197Z,23.00
2023-01-03T14:40:02.701Z,22.27
2023-01-03T14:42:30.097Z,24.10
2023-01-03T14:45:01.654Z,21.50
2023-01-03T14:47:40.250Z,23.73
2023-01-03T14:50:28.554Z,24.58
2023-01-03T14:52:57.823Z,21.02
2023-01-03T14:55:27.756Z,22.37
2023-01-03T14:57:55.217Z,22.03
2023-01-03T15:00:32.646Z,21.25
2023-01-03T15:03:01.395Z,21.27
2023-01-03T15:05:35.355Z,24.13
2023-01-03T15:08:15.121Z,23.23
2023-01-03T15:10:54.635Z,24.27
2023-01-03T15:13:24.625Z,24.27
2023-01-03T15:15:54.324Z,24.35
2023-01-03T15:18:23.191Z,26.70
2023-01-03T15:20:51.691Z,25.08
2023-01-03T15:23:34.771Z,22.60
2023-01-03T15:26:02.282Z,25.60
2023-01-03T15:28:31.817Z,21.33
2023-01-03T15:31:14.842Z,22.90
2023-01-03T15:33:45.132Z,23.10
2023-01-03T15:36:18.389Z,23.67
2023-01-03T15:38:46.370Z,23.27
2023-01-03T15:42:06.439Z,25.60
2023-01-03T15:44:39.318Z,25.55
2023-01-03T15:47:07.628Z,24.43
2023-01-03T15:50:01.124Z,21.17
2023-01-03T15:52:28.820Z,20.75
2023-01-03T15:54:56.279Z,21.77
2023-01-03T15:57:23.662Z,23.15
2023-01-03T15:59:56.505Z,24.02
2023-01-03T16:02:27.021Z,23.85
2023-01-03T16:04:54.764Z,25.02
2023-01-03T16:07:22.263Z,26.23
2023-01-03T16:09:49.674Z,23.10
2023-01-03T16:12:29.730Z,23.15
2023-01-03T16:14:57.125Z,24.08
2023-01-03T16:17:26.242Z,23.15
2023-01-03T16:19:53.817Z,24.98
2023-01-03T16:22:37.637Z,21.75
2023-01-03T16:25:07.104Z,23.02
2023-01-03T16:27:34.574Z,23.75
2023-01-03T16:30:01.945Z,21.75
2023-01-03T16:32:29.888Z,24.25
2023-01-03T16:35:02.063Z,21.87
2023-01-03T16:37:30.831Z,21.37
2023-01-03T16:39:58.697Z,22.75
2023-01-03T16:42:29.220Z,20.15
2023-01-03T16:44:57.820Z,22.02
2023-01-03T16:47:32.685Z,21.60
2023-01-03T16:50:02.551Z,21.02
2023-01-03T16:52:37.534Z,21.25
2023-01-03T16:55:28.348Z,21.20
2023-01-03T16:57:55.901Z,20.05
2023-01-03T17:00:25.014Z,21.10
2023-01-03T17:02:54.504Z,20.88
2023-01-03T17:05:22.251Z,20.98
2023-01-03T17:07:51.301Z,19.55
2023-01-03T17:10:27.842Z,19.55
2023-01-03T17:12:55.738Z,18.10
2023-01-03T17:15:23.098Z,18.55
2023-01-03T17:17:50.471Z,20.50
2023-01-03T17:20:19.245Z,18.30
2023-01-03T17:22:58.017Z,20.52
2023-01-03T17:25:25.761Z,20.12
2023-01-03T17:27:55.163Z,17.60
2023-01-03T17:30:24.279Z,20.35
2023-01-03T17:32:52.092Z,19.33
2023-01-03T17:35:19.533Z,20.15
2023-01-03T17:38:23.270Z,18.98
2023-01-03T17:40:34.750Z,22.35
2023-01-03T17:43:02.486Z,18.48
2023-01-03T17:45:48.957Z,18.20
2023-01-03T17:48:35.493Z,18.33
2023-01-03T17:51:02.893Z,17.83
2023-01-03T17:53:30.622Z,17.63
2023-01-03T17:55:58.067Z,17.33
2023-01-03T17:58:31.061Z,19.05
2023-01-03T18:00:59.040Z,17.97
2023-01-03T18:03:26.845Z,17.42
2023-01-03T18:05:54.263Z,17.67
2023-01-03T18:08:21.893Z,17.40
2023-01-03T18:10:49.574Z,19.25
2023-01-03T18:13:21.177Z,17.67
2023-01-03T18:15:48.783Z,17.87
2023-01-03T18:18:19.959Z,17.30
2023-01-03T18:20:47.449Z,17.60
2023-01-03T18:23:33.602Z,17.27
2023-01-03T18:28:32.827Z,18.40
2023-01-03T18:31:00.270Z,19.37
2023-01-03T18:33:28.284Z,18.77
2023-01-03T18:35:55.610Z,18.17
2023-01-03T18:38:43.322Z,19.62
2023-01-03T18:41:17.075Z,18.75
2023-01-03T18:43:44.510Z,20.05
2023-01-03T18:46:15.879Z,20.77
2023-01-03T18:48:43.306Z,22.42
2023-01-03T18:51:15.011Z,22.23
2023-01-03T18:53:43.461Z,21.08
2023-01-03T18:56:37.521Z,22.75
2023-01-03T18:59:13.672Z,23.67
2023-01-03T19:01:41.158Z,22.55
2023-01-03T19:04:08.939Z,22.87
2023-01-03T19:06:36.597Z,23.23
2023-01-03T19:09:04.501Z,24.53
2023-01-03T19:11:36.920Z,22.07
2023-01-03T19:14:04.349Z,24.27
2023-01-03T19:16:33.471Z,23.02
2023-01-03T19:19:01.094Z,22.73
2023-01-03T19:21:36.109Z,21.65
2023-01-03T19:24:11.898Z,22.20
2023-01-03T19:26:44.600Z,20.70
2023-01-03T19:29:20.455Z,21.90
2023-01-03T19:31:48.620Z,21.87
2023-01-03T19:34:18.462Z,20.80
2023-01-03T19:36:46.125Z,20.70
2023-01-03T19:39:13.667Z,20.75
2023-01-03T19:42:04.206Z,22.15
2023-01-03T19:44:32.208Z,21.93
2023-01-03T19:47:00.041Z,22.20
2023-01-03T19:49:27.536Z,22.23
2023-01-03T19:51:56.880Z,20.60
2023-01-03T19:54:24.638Z,22.53
2023-01-03T19:56:55.278Z,22.43
2023-01-03T19:59:30.551Z,23.10
2023-01-03T20:02:23.984Z,24.50
2023-01-03T20:04:45.913Z,22.62
2023-01-03T20:07:16.587Z,22.95
2023-01-03T20:09:43.916Z,21.15
2023-01-03T20:12:15.538Z,22.48
2023-01-03T20:14:45.662Z,21.83
2023-01-03T20:17:23.747Z,23.45
2023-01-03T20:19:51.223Z,22.98
2023-01-03T20:22:52.876Z,25.55
2023-01-03T20:25:22.563Z,30.42
2023-01-03T20:27:50.593Z,32.33
2023-01-03T20:30:18.969Z,28.55
2023-01-03T20:32:46.392Z,24.30
2023-01-03T20:35:56.335Z,24.87
2023-01-03T20:38:02.995Z,22.27
2023-01-03T20:40:30.602Z,19.50
2023-01-03T20:43:01.976Z,18.30
2023-01-03T20:45:29.489Z,17.73
2023-01-03T20:47:57.116Z,17.67
2023-01-03T20:50:26.503Z,18.70
2023-01-03T20:52:54.355Z,18.15
2023-01-03T20:55:23.206Z,17.37
2023-01-03T20:57:50.806Z,17.97
2023-01-03T21:00:26.869Z,18.70
2023-01-03T21:02:54.764Z,18.75
2023-01-03T21:05:22.352Z,18.45
2023-01-03T21:08:08.627Z,18.17
2023-01-03T21:10:40.362Z,19.67
2023-01-03T21:13:07.975Z,18.80
2023-01-03T21:15:35.809Z,19.55
2023-01-03T21:18:03.915Z,17.83
2023-01-03T21:20:31.564Z,18.80
2023-01-03T21:22:59.198Z,18.12
2023-01-03T21:25:32.860Z,18.80
2023-01-03T21:28:01.000Z,18.48
2023-01-03T21:30:30.783Z,17.20
2023-01-03T21:32:59.597Z,17.25
2023-01-03T21:35:27.633Z,18.37
2023-01-03T21:37:55.078Z,17.27
2023-01-03T21:40:26.912Z,19.65
2023-01-03T21:43:05.441Z,19.87
2023-01-03T21:45:44.147Z,19.03
2023-01-03T21:48:13.143Z,18.90
2023-01-03T21:50:42.483Z,19.83
2023-01-03T21:53:14.478Z,18.73
2023-01-03T21:55:42.200Z,16.67
2023-01-03T21:58:15.771Z,16.77
2023-01-03T22:00:43.551Z,16.80
2023-01-03T22:03:31.031Z,17.03
2023-01-03T22:06:12.299Z,15.07
2023-01-03T22:08:40.630Z,16.00
2023-01-03T22:11:08.284Z,14.80
2023-01-03T22:13:35.895Z,14.57
2023-01-03T22:16:05.106Z,15.23
2023-01-03T22:18:32.793Z,15.20
2023-01-03T22:21:07.837Z,15.50
2023-01-03T22:23:36.135Z,14.17
2023-01-03T22:26:13.851Z,15.23
2023-01-03T22:28:43.021Z,15.52
2023-01-03T22:31:12.734Z,16.80
2023-01-03T22:33:40.157Z,18.33
2023-01-03T22:36:08.502Z,20.00
2023-01-03T22:38:36.558Z,18.53
2023-01-03T22:41:10.452Z,18.43
2023-01-03T22:43:38.123Z,19.30
2023-01-03T22:46:09.005Z,18.77
2023-01-03T22:48:36.576Z,18.50
2023-01-03T22:51:09.306Z,18.07
2023-01-03T22:53:37.504Z,16.87
2023-01-03T22:56:06.199Z,16.53
2023-01-03T22:58:34.641Z,16.23
2023-01-03T23:01:09.436Z,16.50
2023-01-03T23:03:37.147Z,15.20
2023-01-03T23:06:13.543Z,15.23
2023-01-03T23:11:34.280Z,15.47
2023-01-03T23:14:04.129Z,13.57
2023-01-03T23:16:32.354Z,17.57
2023-01-03T23:19:03.799Z,15.70
2023-01-03T23:21:31.504Z,15.33
2023-01-03T23:23:58.864Z,15.03
2023-01-03T23:26:26.209Z,16.50
2023-01-03T23:28:57.473Z,13.83
2023-01-03T23:31:26.402Z,16.37
2023-01-03T23:33:55.221Z,14.27
2023-01-03T23:36:22.672Z,14.47
2023-01-03T23:38:50.049Z,14.93
2023-01-03T23:41:17.912Z,15.10
2023-01-03T23:43:45.309Z,15.33
2023-01-03T23:46:17.639Z,12.47
2023-01-03T23:48:45.466Z,13.37
2023-01-03T23:51:12.891Z,10.73
2023-01-03T23:53:41.814Z,11.03
2023-01-03T23:56:16.268Z,9.40
2023-01-03T23:58:43.707Z,11.43
